createdAt,value
2022-09-12T00:02:10.945Z,83.13
2022-09-12T00:04:38.067Z,84.00
2022-09-12T00:07:05.170Z,84.87
2022-09-12T00:09:32.608Z,84.97
2022-09-12T00:11:59.976Z,85.31
2022-09-12T00:14:27.047Z,84.56
2022-09-12T00:16:59.502Z,83.97
2022-09-12T00:19:27.951Z,83.68
2022-09-12T00:21:55.219Z,83.73
2022-09-12T00:24:23.088Z,84.42
2022-09-12T00:26:50.449Z,84.46
2022-09-12T00:29:20.496Z,84.46
2022-09-12T00:31:48.146Z,84.92
2022-09-12T00:34:15.481Z,84.77
2022-09-12T00:36:42.841Z,84.49
2022-09-12T00:39:14.477Z,85.01
2022-09-12T00:41:41.803Z,84.98
2022-09-12T00:44:24.319Z,84.80
2022-09-12T00:47:02.357Z,85.04
2022-09-12T00:49:38.295Z,85.55
2022-09-12T00:52:13.362Z,85.71
2022-09-12T00:54:52.348Z,85.47
2022-09-12T00:57:23.681Z,85.83
2022-09-12T00:59:53.239Z,85.90
2022-09-12T01:02:21.655Z,85.79
2022-09-12T01:04:50.036Z,85.77
2022-09-12T01:07:17.121Z,86.67
2022-09-12T01:09:46.194Z,86.50
2022-09-12T01:12:15.253Z,86.32
2022-09-12T01:14:42.676Z,87.06
2022-09-12T01:17:13.806Z,87.37
2022-09-12T01:19:46.918Z,87.98
2022-09-12T01:22:50.122Z,88.28
2022-09-12T01:26:07.554Z,87.74
2022-09-12T01:29:02.431Z,87.87
2022-09-12T01:31:51.578Z,88.26
2022-09-12T01:34:28.357Z,88.32
2022-09-12T01:37:19.996Z,88.18
2022-09-12T01:40:12.121Z,88.26
2022-09-12T01:43:04.345Z,87.27
2022-09-12T01:45:47.329Z,87.04
2022-09-12T01:48:23.491Z,86.74
2022-09-12T01:50:57.397Z,87.11
2022-09-12T01:53:29.906Z,87.76
2022-09-12T01:56:22.281Z,88.43
2022-09-12T01:58:59.776Z,89.21
2022-09-12T02:01:29.866Z,88.73
2022-09-12T02:04:41.336Z,89.09
2022-09-12T02:07:18.532Z,90.08
2022-09-12T02:09:50.975Z,89.67
2022-09-12T02:12:25.093Z,90.14
2022-09-12T02:14:58.517Z,89.45
2022-09-12T02:17:27.308Z,90.04
2022-09-12T02:20:09.166Z,89.48
2022-09-12T02:22:38.938Z,89.35
2022-09-12T02:25:09.216Z,89.13
2022-09-12T02:27:46.931Z,89.29
2022-09-12T02:30:16.644Z,89.04
2022-09-12T02:32:46.864Z,89.30
2022-09-12T02:35:23.319Z,88.83
2022-09-12T02:37:56.641Z,89.23
2022-09-12T02:40:24.314Z,89.71
2022-09-12T02:42:52.322Z,89.29
2022-09-12T02:45:19.734Z,89.09
2022-09-12T02:47:56.390Z,88.87
2022-09-12T02:50:24.317Z,88.53
2022-09-12T02:52:53.902Z,89.07
2022-09-12T02:55:21.513Z,89.48
2022-09-12T02:57:48.880Z,89.00
2022-09-12T03:00:16.297Z,89.65
2022-09-12T03:02:58.702Z,89.74
2022-09-12T03:05:40.423Z,89.37
2022-09-12T03:08:21.310Z,89.07
2022-09-12T03:10:51.988Z,89.60
2022-09-12T03:13:25.311Z,90.25
2022-09-12T03:16:23.543Z,90.49
2022-09-12T03:19:20.043Z,90.00
2022-09-12T03:22:20.240Z,90.69
2022-09-12T03:25:14.376Z,91.44
2022-09-12T03:27:53.230Z,90.46
2022-09-12T03:30:20.501Z,90.51
2022-09-12T03:32:53.263Z,90.12
2022-09-12T03:35:23.848Z,90.18
2022-09-12T03:37:53.011Z,90.19
2022-09-12T03:40:20.791Z,89.66
2022-09-12T03:42:48.110Z,89.78
2022-09-12T03:45:16.760Z,89.68
2022-09-12T03:47:44.044Z,89.90
2022-09-12T03:50:11.290Z,89.85
2022-09-12T03:52:38.687Z,89.62
2022-09-12T03:55:06.547Z,89.35
2022-09-12T03:57:34.218Z,89.63
2022-09-12T04:00:02.293Z,89.68
2022-09-12T04:02:40.150Z,89.99
2022-09-12T04:05:08.143Z,89.77
2022-09-12T04:07:35.245Z,89.81
2022-09-12T04:10:02.727Z,89.73
2022-09-12T04:12:30.572Z,89.75
2022-09-12T04:14:57.581Z,89.47
2022-09-12T04:17:25.048Z,89.34
2022-09-12T04:19:52.386Z,89.88
2022-09-12T04:22:19.455Z,89.46
2022-09-12T04:24:47.110Z,89.83
2022-09-12T04:27:14.256Z,89.76
2022-09-12T04:29:41.559Z,89.91
2022-09-12T04:32:08.854Z,90.03
2022-09-12T04:34:36.220Z,89.95
2022-09-12T04:37:03.725Z,89.46
2022-09-12T04:39:31.182Z,88.99
2022-09-12T04:41:58.505Z,89.19
2022-09-12T04:44:25.944Z,89.15
2022-09-12T04:46:53.068Z,89.11
2022-09-12T04:49:20.319Z,89.07
2022-09-12T04:51:47.657Z,88.87
2022-09-12T04:54:19.555Z,88.19
2022-09-12T04:56:49.668Z,88.36
2022-09-12T04:59:22.157Z,88.08
2022-09-12T05:01:49.837Z,87.60
2022-09-12T05:04:21.813Z,87.34
2022-09-12T05:06:49.093Z,88.00
2022-09-12T05:09:16.622Z,88.37
2022-09-12T05:12:05.046Z,88.19
2022-09-12T05:14:47.140Z,87.93
2022-09-12T05:17:14.531Z,87.42
2022-09-12T05:19:41.998Z,87.67
2022-09-12T05:22:09.866Z,86.57
2022-09-12T05:24:53.986Z,86.50
2022-09-12T05:27:21.412Z,87.59
2022-09-12T05:29:48.530Z,86.45
2022-09-12T05:32:15.896Z,86.62
2022-09-12T05:34:43.041Z,86.60
2022-09-12T05:37:10.556Z,86.76
2022-09-12T05:39:37.980Z,86.69
2022-09-12T05:42:06.222Z,86.66
2022-09-12T05:44:34.728Z,86.34
2022-09-12T05:47:01.981Z,86.71
2022-09-12T05:49:30.073Z,86.35
2022-09-12T05:51:57.395Z,86.27
2022-09-12T05:54:28.327Z,85.66
2022-09-12T05:56:58.394Z,86.00
2022-09-12T05:59:25.690Z,84.40
2022-09-12T06:01:52.871Z,84.03
2022-09-12T06:04:20.639Z,84.67
2022-09-12T06:06:48.944Z,85.32
2022-09-12T06:09:17.135Z,84.29
2022-09-12T06:11:45.366Z,83.99
2022-09-12T06:14:15.289Z,83.86
2022-09-12T06:16:42.995Z,84.82
2022-09-12T06:19:19.511Z,83.52
2022-09-12T06:21:49.864Z,83.00
2022-09-12T06:24:19.807Z,82.25
2022-09-12T06:26:48.305Z,81.92
2022-09-12T06:29:16.934Z,81.13
2022-09-12T06:31:44.848Z,81.29
2022-09-12T06:34:16.086Z,81.39
2022-09-12T06:36:47.009Z,80.30
2022-09-12T06:39:18.459Z,80.90
2022-09-12T06:41:48.157Z,81.10
2022-09-12T06:44:22.288Z,81.25
2022-09-12T06:46:50.479Z,80.55
2022-09-12T06:49:18.110Z,79.75
2022-09-12T06:51:45.311Z,79.97
2022-09-12T06:54:17.442Z,79.90
2022-09-12T06:56:45.425Z,79.23
2022-09-12T06:59:12.885Z,79.03
2022-09-12T07:01:42.056Z,78.77
2022-09-12T07:04:10.054Z,78.91
2022-09-12T07:06:40.873Z,76.83
2022-09-12T07:09:11.107Z,76.68
2022-09-12T07:11:40.267Z,77.24
2022-09-12T07:14:09.303Z,77.30
2022-09-12T07:16:37.040Z,75.59
2022-09-12T07:19:05.867Z,75.43
2022-09-12T07:21:33.201Z,74.88
2022-09-12T07:24:00.572Z,75.01
2022-09-12T07:26:29.310Z,74.44
2022-09-12T07:29:18.615Z,73.72
2022-09-12T07:31:47.060Z,73.97
2022-09-12T07:34:14.645Z,72.60
2022-09-12T07:36:43.248Z,72.05
2022-09-12T07:39:11.485Z,72.36
2022-09-12T07:41:38.946Z,71.43
2022-09-12T07:44:09.078Z,72.48
2022-09-12T07:46:36.343Z,72.02
2022-09-12T07:49:03.858Z,71.67
2022-09-12T07:51:32.093Z,71.37
2022-09-12T07:54:00.421Z,71.28
2022-09-12T07:56:30.665Z,72.09
2022-09-12T07:58:59.691Z,72.17
2022-09-12T08:01:27.730Z,71.64
2022-09-12T08:04:00.103Z,71.35
2022-09-12T08:06:30.394Z,69.52
2022-09-12T08:08:59.367Z,69.92
2022-09-12T08:11:28.851Z,68.81
2022-09-12T08:13:57.721Z,68.69
2022-09-12T08:16:31.351Z,68.94
2022-09-12T08:19:01.456Z,70.07
2022-09-12T08:21:31.570Z,68.26
2022-09-12T08:24:04.610Z,68.98
2022-09-12T08:26:33.255Z,68.15
2022-09-12T08:29:01.116Z,67.28
2022-09-12T08:31:30.836Z,66.64
2022-09-12T08:34:01.195Z,67.96
2022-09-12T08:36:29.745Z,66.63
2022-09-12T08:39:03.136Z,66.38
2022-09-12T08:41:42.393Z,66.92
2022-09-12T08:44:32.169Z,65.53
2022-09-12T08:47:02.818Z,65.55
2022-09-12T08:49:35.535Z,64.51
2022-09-12T08:52:17.591Z,65.01
2022-09-12T08:54:48.555Z,66.08
2022-09-12T08:57:15.831Z,65.88
2022-09-12T08:59:48.623Z,65.77
2022-09-12T09:02:31.384Z,65.19
2022-09-12T09:05:13.814Z,64.59
2022-09-12T09:07:50.663Z,65.23
2022-09-12T09:10:53.966Z,63.65
2022-09-12T09:13:45.988Z,64.68
2022-09-12T09:16:22.195Z,62.99
2022-09-12T09:18:50.915Z,62.96
2022-09-12T09:21:41.583Z,61.50
2022-09-12T09:24:16.971Z,61.68
2022-09-12T09:27:00.851Z,62.80
2022-09-12T09:29:41.322Z,60.49
2022-09-12T09:32:19.318Z,61.92
2022-09-12T09:34:47.006Z,62.95
2022-09-12T09:37:29.466Z,62.30
2022-09-12T09:39:59.757Z,60.51
2022-09-12T09:42:57.918Z,60.88
2022-09-12T09:45:29.264Z,60.33
2022-09-12T09:48:15.839Z,61.77
2022-09-12T09:50:49.428Z,60.28
2022-09-12T09:53:38.693Z,58.29
2022-09-12T09:56:12.040Z,58.75
2022-09-12T09:58:40.567Z,55.50
2022-09-12T10:01:18.187Z,56.89
2022-09-12T10:04:04.041Z,55.48
2022-09-12T10:06:38.113Z,53.43
2022-09-12T10:09:28.048Z,54.68
2022-09-12T10:11:57.230Z,56.08
2022-09-12T10:14:31.651Z,55.34
2022-09-12T10:16:59.727Z,55.44
2022-09-12T10:19:40.000Z,55.09
2022-09-12T10:22:07.719Z,57.61
2022-09-12T10:24:41.399Z,54.51
2022-09-12T10:27:15.972Z,52.99
2022-09-12T10:29:54.421Z,54.81
2022-09-12T10:32:36.249Z,55.00
2022-09-12T10:35:09.227Z,55.72
2022-09-12T10:37:40.197Z,55.35
2022-09-12T10:40:22.603Z,54.78
2022-09-12T10:42:55.517Z,57.59
2022-09-12T10:45:32.886Z,54.98
2022-09-12T10:48:20.217Z,55.31
2022-09-12T10:50:47.483Z,55.56
2022-09-12T10:53:17.078Z,55.84
2022-09-12T10:55:59.337Z,54.77
2022-09-12T10:58:48.414Z,55.07
2022-09-12T11:01:21.484Z,54.35
2022-09-12T11:04:07.014Z,53.15
2022-09-12T11:07:01.113Z,54.46
2022-09-12T11:09:48.213Z,53.49
2022-09-12T11:12:47.505Z,53.12
2022-09-12T11:15:52.301Z,53.66
2022-09-12T11:18:45.370Z,52.64
2022-09-12T11:21:21.865Z,53.71
2022-09-12T11:24:25.911Z,52.94
2022-09-12T11:27:22.961Z,54.27
2022-09-12T11:29:58.189Z,53.71
2022-09-12T11:33:01.540Z,53.38
2022-09-12T11:35:30.638Z,53.80
2022-09-12T11:38:33.797Z,54.15
2022-09-12T11:41:11.028Z,54.15
2022-09-12T11:44:03.895Z,54.56
2022-09-12T11:46:38.164Z,53.67
2022-09-12T11:49:14.188Z,52.93
2022-09-12T11:51:45.547Z,52.57
2022-09-12T11:54:34.479Z,50.74
2022-09-12T11:57:12.484Z,51.88
2022-09-12T11:59:54.584Z,50.95
2022-09-12T12:02:40.566Z,51.59
2022-09-12T12:05:22.735Z,52.12
2022-09-12T12:07:59.959Z,51.69
2022-09-12T12:10:48.860Z,50.78
2022-09-12T12:13:26.990Z,51.78
2022-09-12T12:16:04.915Z,51.94
2022-09-12T12:18:35.796Z,51.88
2022-09-12T12:21:34.166Z,50.63
2022-09-12T12:24:07.730Z,50.15
2022-09-12T12:26:41.047Z,50.18
2022-09-12T12:29:31.528Z,52.94
2022-09-12T12:31:58.946Z,51.58
2022-09-12T12:34:36.083Z,51.15
2022-09-12T12:37:21.409Z,52.87
2022-09-12T12:40:04.973Z,53.25
2022-09-12T12:42:35.017Z,53.23
2022-09-12T12:45:04.644Z,52.02
2022-09-12T12:47:40.756Z,51.87
2022-09-12T12:50:21.116Z,51.12
2022-09-12T12:53:07.362Z,49.29
2022-09-12T12:55:47.675Z,51.15
2022-09-12T12:58:30.507Z,50.84
2022-09-12T13:01:10.406Z,51.50
2022-09-12T13:03:43.966Z,51.56
2022-09-12T13:06:42.699Z,52.98
2022-09-12T13:09:39.882Z,52.82
2022-09-12T13:12:13.297Z,52.54
2022-09-12T13:14:43.917Z,52.61
2022-09-12T13:17:41.634Z,51.42
2022-09-12T13:20:30.917Z,50.48
2022-09-12T13:22:58.479Z,49.66
2022-09-12T13:25:33.743Z,49.59
2022-09-12T13:28:20.698Z,49.37
2022-09-12T13:31:22.915Z,49.98
2022-09-12T13:33:56.273Z,50.25
2022-09-12T13:36:30.643Z,50.17
2022-09-12T13:39:14.267Z,49.19
2022-09-12T13:42:13.820Z,49.53
2022-09-12T13:44:51.899Z,48.64
2022-09-12T13:47:47.106Z,49.13
2022-09-12T13:50:41.922Z,48.74
2022-09-12T13:53:20.092Z,48.69
2022-09-12T13:55:52.158Z,49.38
2022-09-12T13:58:28.548Z,49.32
2022-09-12T14:01:06.914Z,48.95
2022-09-12T14:04:11.845Z,49.71
2022-09-12T14:06:49.787Z,50.14
2022-09-12T14:09:25.233Z,51.78
2022-09-12T14:11:53.959Z,50.99
2022-09-12T14:14:51.917Z,51.14
2022-09-12T14:17:29.522Z,50.69
2022-09-12T14:20:00.256Z,50.76
2022-09-12T14:22:30.187Z,51.05
2022-09-12T14:24:59.690Z,51.05
2022-09-12T14:27:54.785Z,52.15
2022-09-12T14:30:30.948Z,51.77
2022-09-12T14:33:22.093Z,52.41
2022-09-12T14:35:52.317Z,52.74
2022-09-12T14:38:35.309Z,52.13
2022-09-12T14:41:08.990Z,52.43
2022-09-12T14:43:40.926Z,52.88
2022-09-12T14:46:33.188Z,52.38
2022-09-12T14:49:14.036Z,53.14
2022-09-12T14:51:55.257Z,53.26
2022-09-12T14:54:28.667Z,53.00
2022-09-12T14:57:03.234Z,52.19
2022-09-12T14:59:41.216Z,53.42
2022-09-12T15:02:22.604Z,53.91
2022-09-12T15:05:11.021Z,52.88
2022-09-12T15:07:41.727Z,52.82
2022-09-12T15:10:18.238Z,53.55
2022-09-12T15:12:46.828Z,53.61
2022-09-12T15:15:21.295Z,53.18
2022-09-12T15:17:49.697Z,53.50
2022-09-12T15:20:21.962Z,53.08
2022-09-12T15:22:50.510Z,53.49
2022-09-12T15:25:18.266Z,53.64
2022-09-12T15:27:47.105Z,53.59
2022-09-12T15:30:14.638Z,53.53
2022-09-12T15:32:44.481Z,53.69
2022-09-12T15:35:26.053Z,53.43
2022-09-12T15:37:53.520Z,53.43
2022-09-12T15:40:21.962Z,53.24
2022-09-12T15:42:49.727Z,53.15
2022-09-12T15:45:23.865Z,53.78
2022-09-12T15:47:54.959Z,53.05
2022-09-12T15:50:28.660Z,53.64
2022-09-12T15:52:57.947Z,53.87
2022-09-12T15:55:29.409Z,54.80
2022-09-12T15:57:57.256Z,54.33
2022-09-12T16:00:24.655Z,53.83
2022-09-12T16:02:54.117Z,54.56
2022-09-12T16:05:25.441Z,54.80
2022-09-12T16:07:55.023Z,54.68
2022-09-12T16:10:25.907Z,54.31
2022-09-12T16:12:54.870Z,54.29
2022-09-12T16:15:24.716Z,54.65
2022-09-12T16:17:52.678Z,54.45
2022-09-12T16:20:21.593Z,55.13
2022-09-12T16:22:48.930Z,56.18
2022-09-12T16:25:17.496Z,55.69
2022-09-12T16:27:45.170Z,55.51
2022-09-12T16:30:13.299Z,56.48
2022-09-12T16:32:41.291Z,56.60
2022-09-12T16:35:09.860Z,56.88
2022-09-12T16:37:37.276Z,56.54
2022-09-12T16:40:05.634Z,56.96
2022-09-12T16:42:37.433Z,57.22
2022-09-12T16:45:09.661Z,57.61
2022-09-12T16:47:37.052Z,58.35
2022-09-12T16:50:04.735Z,58.02
2022-09-12T16:52:31.937Z,57.89
2022-09-12T16:54:59.021Z,58.60
2022-09-12T16:57:26.248Z,58.33
2022-09-12T16:59:53.722Z,58.94
2022-09-12T17:02:21.086Z,58.49
2022-09-12T17:04:48.911Z,58.98
2022-09-12T17:07:16.478Z,58.83
2022-09-12T17:09:47.425Z,58.54
2022-09-12T17:12:15.126Z,58.83
2022-09-12T17:14:42.334Z,59.77
2022-09-12T17:17:09.622Z,60.34
2022-09-12T17:19:37.029Z,60.14
2022-09-12T17:22:04.917Z,60.47
2022-09-12T17:24:33.077Z,60.59
2022-09-12T17:27:00.288Z,61.29
2022-09-12T17:29:27.619Z,60.83
2022-09-12T17:31:55.774Z,61.02
2022-09-12T17:34:23.509Z,61.28
2022-09-12T17:36:50.970Z,61.27
2022-09-12T17:39:18.203Z,61.47
2022-09-12T17:41:46.266Z,61.59
2022-09-12T17:44:15.343Z,61.92
2022-09-12T17:46:43.825Z,62.17
2022-09-12T17:49:19.280Z,61.95
2022-09-12T17:51:52.045Z,63.01
2022-09-12T17:54:20.955Z,62.90
2022-09-12T17:56:51.789Z,63.05
2022-09-12T17:59:25.149Z,63.48
2022-09-12T18:02:11.339Z,63.72
2022-09-12T18:04:40.721Z,64.23
2022-09-12T18:07:08.802Z,64.06
2022-09-12T18:09:39.252Z,63.76
2022-09-12T18:12:07.574Z,63.87
2022-09-12T18:14:35.247Z,64.27
2022-09-12T18:17:02.510Z,64.08
2022-09-12T18:19:29.955Z,64.22
2022-09-12T18:22:00.747Z,64.13
2022-09-12T18:27:14.412Z,64.33
2022-09-12T18:29:41.846Z,64.34
2022-09-12T18:32:18.625Z,64.69
2022-09-12T18:34:45.910Z,64.80
2022-09-12T18:37:13.577Z,64.60
2022-09-12T18:39:41.968Z,64.53
2022-09-12T18:42:09.256Z,64.59
2022-09-12T18:44:36.332Z,64.25
2022-09-12T18:47:04.402Z,63.89
2022-09-12T18:49:31.674Z,64.54
2022-09-12T18:51:58.640Z,63.96
2022-09-12T18:54:29.971Z,63.66
2022-09-12T18:56:59.349Z,63.80
2022-09-12T18:59:29.709Z,63.41
2022-09-12T19:01:57.063Z,63.49
2022-09-12T19:04:35.483Z,63.79
2022-09-12T19:07:07.688Z,64.13
2022-09-12T19:09:34.812Z,63.82
2022-09-12T19:12:02.142Z,64.01
2022-09-12T19:14:29.379Z,63.58
2022-09-12T19:16:57.682Z,63.57
2022-09-12T19:19:25.236Z,63.84
2022-09-12T19:21:55.789Z,64.45
2022-09-12T19:24:28.088Z,63.56
2022-09-12T19:26:56.876Z,63.49
2022-09-12T19:29:24.137Z,64.02
2022-09-12T19:31:51.449Z,63.15
2022-09-12T19:34:21.042Z,63.66
2022-09-12T19:36:48.484Z,63.07
2022-09-12T19:39:17.775Z,63.95
2022-09-12T19:41:45.705Z,63.23
2022-09-12T19:44:19.357Z,63.25
2022-09-12T19:46:57.648Z,63.01
2022-09-12T19:49:28.078Z,62.94
2022-09-12T19:52:00.595Z,62.94
2022-09-12T19:54:27.700Z,63.31
2022-09-12T19:56:55.958Z,63.32
2022-09-12T19:59:24.036Z,63.45
2022-09-12T20:01:51.303Z,63.77
2022-09-12T20:04:18.621Z,64.43
2022-09-12T20:06:45.799Z,64.47
2022-09-12T20:09:24.995Z,64.97
2022-09-12T20:11:55.485Z,65.34
2022-09-12T20:14:26.630Z,65.70
2022-09-12T20:16:55.540Z,65.77
2022-09-12T20:19:23.524Z,66.42
2022-09-12T20:21:53.310Z,66.44
2022-09-12T20:24:20.655Z,66.42
2022-09-12T20:26:47.837Z,66.32
2022-09-12T20:29:14.950Z,67.22
2022-09-12T20:31:42.672Z,66.97
2022-09-12T20:34:20.508Z,66.88
2022-09-12T20:36:49.022Z,66.59
2022-09-12T20:39:19.968Z,66.72
2022-09-12T20:41:47.974Z,66.04
2022-09-12T20:44:18.952Z,66.19
2022-09-12T20:46:46.877Z,65.79
2022-09-12T20:49:14.057Z,66.33
2022-09-12T20:51:41.519Z,65.96
2022-09-12T20:54:08.742Z,66.47
2022-09-12T20:56:48.639Z,66.35
2022-09-12T20:59:17.194Z,66.21
2022-09-12T21:01:46.119Z,66.22
2022-09-12T21:04:15.348Z,66.02
2022-09-12T21:06:42.635Z,66.30
2022-09-12T21:09:09.993Z,66.60
2022-09-12T21:11:40.604Z,66.61
2022-09-12T21:14:08.105Z,67.00
2022-09-12T21:16:38.753Z,66.80
2022-09-12T21:19:07.965Z,67.38
2022-09-12T21:21:38.390Z,67.09
2022-09-12T21:24:09.500Z,66.83
2022-09-12T21:26:38.462Z,67.43
2022-09-12T21:29:06.367Z,67.81
2022-09-12T21:31:49.057Z,67.74
2022-09-12T21:34:16.133Z,67.80
2022-09-12T21:36:43.478Z,67.33
2022-09-12T21:39:10.823Z,67.54
2022-09-12T21:41:37.995Z,67.45
2022-09-12T21:44:05.401Z,67.80
2022-09-12T21:46:32.967Z,68.14
2022-09-12T21:49:01.635Z,67.89
2022-09-12T21:51:29.246Z,67.92
2022-09-12T21:53:57.621Z,68.49
2022-09-12T21:56:24.861Z,68.78
2022-09-12T21:58:52.005Z,68.95
2022-09-12T22:01:19.479Z,68.71
2022-09-12T22:03:46.688Z,68.54
2022-09-12T22:06:14.418Z,68.48
2022-09-12T22:08:41.938Z,68.76
2022-09-12T22:11:11.043Z,68.96
2022-09-12T22:13:43.831Z,69.27
2022-09-12T22:16:15.239Z,69.86
2022-09-12T22:18:42.245Z,69.68
2022-09-12T22:21:13.095Z,70.30
2022-09-12T22:23:59.328Z,70.28
2022-09-12T22:26:29.574Z,69.88
2022-09-12T22:28:57.273Z,70.78
2022-09-12T22:31:24.531Z,70.12
2022-09-12T22:33:54.341Z,69.60
2022-09-12T22:36:30.492Z,70.08
2022-09-12T22:39:00.657Z,71.06
2022-09-12T22:41:32.101Z,70.93
2022-09-12T22:44:00.021Z,70.84
2022-09-12T22:46:27.732Z,71.78
2022-09-12T22:48:55.933Z,72.32
2022-09-12T22:51:23.451Z,72.70
2022-09-12T22:53:51.578Z,73.24
2022-09-12T22:56:19.160Z,73.91
2022-09-12T22:58:46.269Z,74.37
2022-09-12T23:01:15.904Z,74.71
2022-09-12T23:03:44.422Z,74.64
2022-09-12T23:06:12.489Z,74.64
2022-09-12T23:08:46.001Z,74.11
2022-09-12T23:11:16.728Z,74.57
2022-09-12T23:13:46.849Z,75.33
2022-09-12T23:16:25.781Z,76.62
2022-09-12T23:18:53.087Z,77.49
2022-09-12T23:21:22.115Z,77.86
2022-09-12T23:23:49.888Z,77.57
2022-09-12T23:26:28.326Z,77.96
2022-09-12T23:29:02.342Z,78.40
2022-09-12T23:31:32.848Z,78.26
2022-09-12T23:34:06.210Z,78.02
2022-09-12T23:36:34.295Z,77.89
2022-09-12T23:39:02.190Z,78.21
2022-09-12T23:41:30.188Z,78.90
2022-09-12T23:43:57.896Z,79.15
2022-09-12T23:46:25.184Z,79.93
2022-09-12T23:48:56.131Z,80.79
2022-09-12T23:51:24.174Z,81.07
2022-09-12T23:53:54.163Z,81.34
2022-09-12T23:56:22.365Z,81.45
2022-09-12T23:58:49.824Z,81.52
